Time;durP1;ratioP1;P1;durP2;ratioP2;P2;SDS_P1;SDS_P2;PMS_P1;PMS_P2;Temp;Humidity;BMP_temperature;BMP_pressure;BME280_temperature;BME280_humidity;BME280_pressure;Samples;Min_cycle;Max_cycle;Signal;HPM_P1;HPM_P2
2024/01/27 00:01:36;;;;;;;;;;;;;;;11.68;46.37;101810.53;4925594;28;97932;-70
2024/01/27 00:04:02;;;;;;;;;;;;;;;11.69;46.24;101811.34;4923216;28;99375;-71
2024/01/27 00:06:28;;;;;;;;;;;;;;;11.68;46.22;101809.72;4921419;28;98763;-71
2024/01/27 00:08:54;;;;;;;;;;;;;;;11.68;46.23;101812.41;4923948;28;99926;-70
2024/01/27 00:11:20;;;;;;;;;;;;;;;11.67;46.26;101808.91;4923415;28;126860;-64
2024/01/27 00:13:46;;;;;;;;;;;;;;;11.68;46.40;101807.81;4920803;28;98490;-70
2024/01/27 00:16:12;;;;;;;;;;;;;;;11.68;46.42;101813.22;4941281;28;98591;-71
2024/01/27 00:18:38;;;;;;;;;;;;;;;11.67;46.25;101818.84;4925391;28;104693;-64
2024/01/27 00:21:05;;;;;;;;;;;;;;;11.68;46.28;101815.13;4924998;28;98395;-71
2024/01/27 00:23:32;;;;;;;;;;;;;;;11.67;46.33;101818.84;4926015;28;104235;-64
2024/01/27 00:25:58;;;;;;;;;;;;;;;11.67;46.38;101826.97;4928073;28;98018;-71
2024/01/27 00:28:24;;;;;;;;;;;;;;;11.66;46.26;101828.84;4945720;28;98608;-71
2024/01/27 00:30:51;;;;;;;;;;;;;;;11.66;46.23;101836.94;4921988;28;98155;-71
2024/01/27 00:33:17;;;;;;;;;;;;;;;11.64;46.30;101828.28;4947479;28;97991;-64
2024/01/27 00:35:43;;;;;;;;;;;;;;;11.65;46.45;101832.63;4927908;28;98637;-64
2024/01/27 00:38:09;;;;;;;;;;;;;;;11.65;46.24;101842.59;4924388;28;98410;-64
2024/01/27 00:40:35;;;;;;;;;;;;;;;11.64;46.40;101849.06;4925304;28;98142;-71
2024/01/27 00:43:04;;;;;;;;;;;;;;;11.64;46.34;101858.00;4927351;28;99531;-71
2024/01/27 00:45:30;;;;;;;;;;;;;;;11.64;46.38;101863.41;4930045;28;98511;-71
2024/01/27 00:47:56;;;;;;;;;;;;;;;11.64;46.43;101866.09;4947655;28;98351;-64
2024/01/27 00:50:23;;;;;;;;;;;;;;;11.64;46.32;101862.56;4925882;28;98215;-65
2024/01/27 00:52:49;;;;;;;;;;;;;;;11.64;46.23;101862.56;4924086;28;98474;-64
2024/01/27 00:55:15;;;;;;;;;;;;;;;11.65;46.26;101880.41;4938357;28;98571;-71
2024/01/27 00:57:41;;;;;;;;;;;;;;;11.64;46.17;101876.91;4926233;28;98401;-64
2024/01/27 01:00:08;;;;;;;;;;;;;;;11.63;46.24;101877.97;4937457;28;111872;-64
2024/01/27 01:02:34;;;;;;;;;;;;;;;11.62;46.35;101876.31;4947322;28;99371;-70
2024/01/27 01:05:00;;;;;;;;;;;;;;;11.64;46.33;101878.78;4924855;28;98091;-71
2024/01/27 01:07:27;;;;;;;;;;;;;;;11.64;46.24;101886.88;4937482;28;98429;-71
2024/01/27 01:09:52;;;;;;;;;;;;;;;11.64;46.32;101886.88;4927845;28;98211;-71
2024/01/27 01:12:18;;;;;;;;;;;;;;;11.63;46.31;101885.22;4937413;28;109666;-71
2024/01/27 01:14:45;;;;;;;;;;;;;;;11.63;46.33;101891.47;4941797;28;98085;-70
2024/01/27 01:17:11;;;;;;;;;;;;;;;11.62;46.42;101900.59;4922692;28;98186;-71
2024/01/27 01:19:38;;;;;;;;;;;;;;;11.63;45.85;101896.88;4926535;28;98004;-64
2024/01/27 01:22:04;;;;;;;;;;;;;;;11.63;46.18;101899.56;4938499;28;98393;-64
2024/01/27 01:24:31;;;;;;;;;;;;;;;11.64;46.32;101900.38;4940938;28;98145;-71
2024/01/27 01:26:57;;;;;;;;;;;;;;;11.64;46.32;101895.00;4927829;28;98277;-71
2024/01/27 01:29:23;;;;;;;;;;;;;;;11.63;46.15;101902.28;4925735;28;98910;-64
2024/01/27 01:31:50;;;;;;;;;;;;;;;11.63;46.31;101890.63;4925757;28;98189;-70
2024/01/27 01:34:16;;;;;;;;;;;;;;;11.63;46.34;101893.31;4934705;28;98871;-71
2024/01/27 01:36:42;;;;;;;;;;;;;;;11.62;46.18;101900.59;4930854;28;98176;-64
2024/01/27 01:39:10;;;;;;;;;;;;;;;11.62;46.01;101895.22;4944618;28;98057;-71
2024/01/27 01:41:36;;;;;;;;;;;;;;;11.61;46.18;101893.56;4943599;28;98250;-70
2024/01/27 01:44:02;;;;;;;;;;;;;;;11.60;46.20;101894.66;4931132;28;104111;-64
2024/01/27 01:46:28;;;;;;;;;;;;;;;11.60;46.37;101891.13;4943312;28;98618;-71
2024/01/27 01:48:55;;;;;;;;;;;;;;;11.59;46.22;101901.09;4940869;28;99025;-70
2024/01/27 01:51:22;;;;;;;;;;;;;;;11.59;46.21;101892.97;4945932;28;98484;-65
2024/01/27 01:53:48;;;;;;;;;;;;;;;11.59;46.22;101897.56;4925911;28;98229;-64
2024/01/27 01:56:15;;;;;;;;;;;;;;;11.58;46.23;101895.94;4939742;28;98084;-71
2024/01/27 01:58:41;;;;;;;;;;;;;;;11.56;46.40;101893.47;4923965;28;98506;-72
2024/01/27 02:01:07;;;;;;;;;;;;;;;11.54;46.52;101891.00;4926556;28;104800;-70
2024/01/27 02:03:33;;;;;;;;;;;;;;;11.55;46.26;101900.78;4925163;28;98447;-64
2024/01/27 02:05:59;;;;;;;;;;;;;;;11.54;46.33;101899.09;4929339;28;99738;-71
2024/01/27 02:08:25;;;;;;;;;;;;;;;11.53;46.51;101910.97;4943415;28;98778;-64
2024/01/27 02:10:51;;;;;;;;;;;;;;;11.52;46.03;101903.13;4940019;28;98083;-70
2024/01/27 02:13:20;;;;;;;;;;;;;;;11.52;46.29;101903.13;4930113;28;124620;-64
2024/01/27 02:15:46;;;;;;;;;;;;;;;11.51;46.12;101915.81;4956041;28;98352;-71
2024/01/27 02:18:13;;;;;;;;;;;;;;;11.51;46.21;101918.50;4923934;28;99822;-64
2024/01/27 02:20:39;;;;;;;;;;;;;;;11.52;46.19;101924.72;4941367;28;101379;-70
2024/01/27 02:23:05;;;;;;;;;;;;;;;11.50;46.29;101918.72;4925913;28;98173;-64
2024/01/27 02:25:32;;;;;;;;;;;;;;;11.51;46.21;101917.66;4922883;28;98205;-71
2024/01/27 02:27:58;;;;;;;;;;;;;;;11.49;46.42;101923.31;4919732;28;99626;-64
2024/01/27 02:30:24;;;;;;;;;;;;;;;11.49;46.19;101931.41;4928661;28;99340;-70
2024/01/27 02:32:51;;;;;;;;;;;;;;;11.48;46.25;101940.59;4938866;28;122795;-71
2024/01/27 02:35:17;;;;;;;;;;;;;;;11.48;46.35;101937.06;4933441;28;100026;-71
2024/01/27 02:37:43;;;;;;;;;;;;;;;11.48;46.26;101939.75;4922683;28;99647;-64
2024/01/27 02:40:09;;;;;;;;;;;;;;;11.48;46.43;101927.06;4933886;28;100882;-64
2024/01/27 02:42:36;;;;;;;;;;;;;;;11.48;46.32;101939.75;4925526;28;98042;-71
2024/01/27 02:45:03;;;;;;;;;;;;;;;11.47;46.22;101941.63;4925754;28;98516;-71
2024/01/27 02:47:29;;;;;;;;;;;;;;;11.46;46.44;101937.28;4939568;28;99514;-64
2024/01/27 02:49:55;;;;;;;;;;;;;;;11.45;46.30;101935.66;4926290;28;98280;-71
2024/01/27 02:52:21;;;;;;;;;;;;;;;11.46;46.46;101934.59;4926230;28;98538;-64
2024/01/27 02:54:47;;;;;;;;;;;;;;;11.46;46.24;101939.16;4955081;28;126361;-71
2024/01/27 02:57:15;;;;;;;;;;;;;;;11.43;46.27;101940.44;4932882;28;98277;-64
2024/01/27 02:59:41;;;;;;;;;;;;;;;11.44;46.23;101925.91;4924694;28;98055;-71
2024/01/27 03:02:07;;;;;;;;;;;;;;;11.43;46.21;101923.44;4924531;28;100021;-64
2024/01/27 03:04:33;;;;;;;;;;;;;;;11.42;46.23;101928.00;4924371;28;100076;-64
2024/01/27 03:06:59;;;;;;;;;;;;;;;11.42;46.26;101930.72;4928131;28;113987;-64
2024/01/27 03:09:25;;;;;;;;;;;;;;;11.42;46.24;101932.59;4925292;28;97995;-71
2024/01/27 03:11:51;;;;;;;;;;;;;;;11.41;46.09;101936.38;4919222;28;98096;-64
2024/01/27 03:14:17;;;;;;;;;;;;;;;11.40;46.45;101937.44;4940548;28;99312;-64
2024/01/27 03:16:56;;;;;;;;;;;;;;;11.39;46.28;101939.28;5050562;27;97846;-70
2024/01/27 03:19:22;;;;;;;;;;;;;;;11.37;46.14;101937.91;5014387;27;98114;-64
2024/01/27 03:21:48;;;;;;;;;;;;;;;11.33;46.17;101942.13;5013271;27;122013;-70
2024/01/27 03:24:14;;;;;;;;;;;;;;;11.30;46.51;101946.13;5001661;27;99644;-70
2024/01/27 03:26:40;;;;;;;;;;;;;;;11.26;45.99;101940.38;4997683;27;125121;-64
2024/01/27 03:29:06;;;;;;;;;;;;;;;11.24;46.05;101934.41;5003972;27;98140;-71
2024/01/27 03:31:35;;;;;;;;;;;;;;;11.23;46.08;101940.81;4998037;27;98236;-64
2024/01/27 03:34:01;;;;;;;;;;;;;;;11.21;46.08;101939.44;4999377;27;108300;-71
2024/01/27 03:36:27;;;;;;;;;;;;;;;11.19;46.19;101946.94;4988228;27;98688;-65
2024/01/27 03:38:54;;;;;;;;;;;;;;;11.17;46.26;101943.66;5001703;27;98302;-65
2024/01/27 03:41:20;;;;;;;;;;;;;;;11.16;46.16;101958.19;4982950;27;100028;-65
2024/01/27 03:43:46;;;;;;;;;;;;;;;11.12;46.30;101948.94;5014596;27;98686;-65
2024/01/27 03:46:12;;;;;;;;;;;;;;;11.12;46.16;101957.88;5001989;27;98314;-71
2024/01/27 03:48:38;;;;;;;;;;;;;;;11.12;46.22;101962.41;4999381;27;98037;-64
2024/01/27 03:51:05;;;;;;;;;;;;;;;11.11;46.45;101958.09;4980730;27;102536;-71
2024/01/27 03:53:31;;;;;;;;;;;;;;;11.10;46.31;101956.44;4981935;27;98283;-67
2024/01/27 03:55:59;;;;;;;;;;;;;;;11.09;46.42;101950.25;5015045;27;126260;-71
2024/01/27 03:58:25;;;;;;;;;;;;;;;11.09;46.15;101949.41;5001186;27;97908;-65
2024/01/27 04:00:52;;;;;;;;;;;;;;;11.08;46.24;101967.47;4991329;27;98032;-71
2024/01/27 04:03:18;;;;;;;;;;;;;;;11.07;46.22;101965.81;5002092;27;98429;-65
2024/01/27 04:05:44;;;;;;;;;;;;;;;11.09;46.26;101979.09;4983541;27;101027;-65
2024/01/27 04:08:10;;;;;;;;;;;;;;;11.07;46.12;101976.63;4996709;27;98265;-65
2024/01/27 04:10:37;;;;;;;;;;;;;;;11.08;46.21;101980.97;4998221;27;127007;-65
2024/01/27 04:13:03;;;;;;;;;;;;;;;11.07;46.19;101985.53;4992076;27;99398;-65
2024/01/27 04:15:29;;;;;;;;;;;;;;;11.07;46.12;101987.41;5003342;27;98321;-71
2024/01/27 04:17:55;;;;;;;;;;;;;;;11.07;46.03;101987.41;4980260;27;98355;-71
2024/01/27 04:20:22;;;;;;;;;;;;;;;11.06;45.99;101985.78;4979855;27;99561;-70
2024/01/27 04:22:48;;;;;;;;;;;;;;;11.06;46.03;101996.56;4981449;27;99365;-70
2024/01/27 04:25:17;;;;;;;;;;;;;;;11.06;46.34;101996.56;4996924;27;98153;-67
2024/01/27 04:27:43;;;;;;;;;;;;;;;11.06;46.19;101996.56;4975888;27;98672;-71
2024/01/27 04:30:11;;;;;;;;;;;;;;;11.05;46.10;101994.94;5001600;27;98205;-70
2024/01/27 04:32:38;;;;;;;;;;;;;;;11.05;46.31;101994.94;4986798;27;98888;-65
2024/01/27 04:35:06;;;;;;;;;;;;;;;11.03;46.35;101997.84;4985951;27;98452;-64
2024/01/27 04:37:32;;;;;;;;;;;;;;;11.03;46.05;102000.56;4972506;27;98137;-64
2024/01/27 04:39:58;;;;;;;;;;;;;;;11.05;46.30;102011.13;4981518;27;99193;-64
2024/01/27 04:42:24;;;;;;;;;;;;;;;11.03;46.16;102014.03;4966386;27;99993;-64
2024/01/27 04:44:50;;;;;;;;;;;;;;;11.03;46.15;102011.34;4979907;27;98166;-71
2024/01/27 04:47:16;;;;;;;;;;;;;;;11.04;45.97;102012.16;4981740;27;108843;-64
2024/01/27 04:49:43;;;;;;;;;;;;;;;11.02;46.36;102017.00;5002560;27;98614;-70
2024/01/27 04:52:09;;;;;;;;;;;;;;;11.02;46.28;102023.19;4965628;27;98076;-64
2024/01/27 04:54:36;;;;;;;;;;;;;;;11.01;46.28;102023.44;4965812;27;97942;-64
2024/01/27 04:57:02;;;;;;;;;;;;;;;11.03;46.27;102034.81;4986321;27;98073;-66
2024/01/27 04:59:28;;;;;;;;;;;;;;;11.03;46.23;102038.31;4988618;27;98223;-70
2024/01/27 05:01:54;;;;;;;;;;;;;;;11.02;46.01;102036.69;4969901;27;97989;-70
2024/01/27 05:04:21;;;;;;;;;;;;;;;11.02;46.05;102036.69;4978615;27;98198;-64
2024/01/27 05:06:47;;;;;;;;;;;;;;;11.01;45.93;102045.84;4983848;27;99141;-64
2024/01/27 05:09:13;;;;;;;;;;;;;;;11.02;46.21;102052.88;4966119;27;99811;-64
2024/01/27 05:11:39;;;;;;;;;;;;;;;11.01;45.97;102056.66;4981110;27;98838;-64
2024/01/27 05:14:05;;;;;;;;;;;;;;;11.01;46.17;102053.94;4985998;27;98043;-64
2024/01/27 05:16:33;;;;;;;;;;;;;;;11.01;46.22;102051.25;4965149;27;98365;-64
2024/01/27 05:18:59;;;;;;;;;;;;;;;11.01;45.95;102045.03;5003627;27;99553;-70
2024/01/27 05:21:25;;;;;;;;;;;;;;;11.00;46.26;102049.63;4967358;27;98688;-71
2024/01/27 05:23:51;;;;;;;;;;;;;;;11.00;46.01;102049.63;4982771;27;98032;-70
2024/01/27 05:26:17;;;;;;;;;;;;;;;11.00;46.21;102059.56;4987832;27;98447;-67
2024/01/27 05:28:44;;;;;;;;;;;;;;;11.00;45.95;102055.00;4971891;27;98398;-70
2024/01/27 05:31:09;;;;;;;;;;;;;;;11.00;45.88;102056.84;4986356;27;100248;-64
2024/01/27 05:33:42;;;;;;;;;;;;;;;10.98;46.23;102054.41;4984583;27;115804;-70
2024/01/27 05:36:08;;;;;;;;;;;;;;;11.00;46.07;102049.63;4971047;27;97896;-70
2024/01/27 05:38:34;;;;;;;;;;;;;;;10.98;45.92;102053.59;4966725;27;100570;-71
2024/01/27 05:41:03;;;;;;;;;;;;;;;10.98;45.95;102051.69;4978606;27;98286;-65
2024/01/27 05:43:29;;;;;;;;;;;;;;;10.98;46.01;102053.59;4984380;27;99516;-65
2024/01/27 05:45:55;;;;;;;;;;;;;;;10.97;46.13;102065.44;4963044;27;98497;-64
2024/01/27 05:48:22;;;;;;;;;;;;;;;10.97;46.13;102070.84;4963579;27;98484;-71
2024/01/27 05:51:01;;;;;;;;;;;;;;;10.95;46.27;102068.34;4985273;27;100005;-67
2024/01/27 05:53:27;;;;;;;;;;;;;;;10.95;46.04;102071.03;4991610;27;99263;-71
2024/01/27 05:55:53;;;;;;;;;;;;;;;10.95;46.14;102087.22;4995421;27;98255;-65
2024/01/27 05:58:22;;;;;;;;;;;;;;;11.00;46.31;102068.50;4984367;27;98770;-70
2024/01/27 06:00:48;;;;;;;;;;;;;;;11.06;46.18;102070.25;4996502;27;98549;-71
2024/01/27 06:03:15;;;;;;;;;;;;;;;11.12;46.29;102079.31;4981259;27;98369;-65
2024/01/27 06:05:44;;;;;;;;;;;;;;;11.15;46.38;102081.53;4979993;27;98179;-65
2024/01/27 06:08:10;;;;;;;;;;;;;;;11.17;45.93;102071.34;4973984;27;98895;-71
2024/01/27 06:10:36;;;;;;;;;;;;;;;11.19;46.20;102069.22;4976333;27;98498;-72
2024/01/27 06:13:03;;;;;;;;;;;;;;;11.21;46.20;102075.22;4963106;27;98420;-72
2024/01/27 06:15:29;;;;;;;;;;;;;;;11.21;45.99;102079.78;4985895;27;98393;-65
2024/01/27 06:17:55;;;;;;;;;;;;;;;11.21;46.14;102075.22;4988830;27;100616;-65
2024/01/27 06:20:21;;;;;;;;;;;;;;;11.23;45.85;102077.66;4963745;27;98283;-66
2024/01/27 06:22:47;;;;;;;;;;;;;;;11.22;46.19;102082.25;4978340;27;98640;-72
2024/01/27 06:25:13;;;;;;;;;;;;;;;11.22;46.08;102084.94;4981843;27;99070;-65
2024/01/27 06:27:41;;;;;;;;;;;;;;;11.21;46.35;102083.31;4982632;27;109587;-66
2024/01/27 06:30:08;;;;;;;;;;;;;;;11.21;46.19;102096.00;4959017;27;99610;-72
2024/01/27 06:32:34;;;;;;;;;;;;;;;11.20;46.38;102097.03;4959561;27;98371;-65
2024/01/27 06:35:00;;;;;;;;;;;;;;;11.19;46.25;102109.69;4979624;27;98265;-72
2024/01/27 06:37:26;;;;;;;;;;;;;;;11.18;46.08;102099.97;4982660;27;98212;-72
2024/01/27 06:39:52;;;;;;;;;;;;;;;11.18;46.33;102101.84;4960536;27;99462;-72
2024/01/27 06:42:18;;;;;;;;;;;;;;;11.17;46.18;102111.81;4963953;27;110774;-72
2024/01/27 06:44:44;;;;;;;;;;;;;;;11.16;46.23;102118.28;4979756;27;98072;-72
2024/01/27 06:47:10;;;;;;;;;;;;;;;11.16;46.31;102117.44;4964464;27;118667;-72
2024/01/27 06:49:36;;;;;;;;;;;;;;;11.14;46.21;102124.97;4993998;27;97831;-65
2024/01/27 06:52:03;;;;;;;;;;;;;;;11.15;46.08;102123.88;4980893;27;98807;-65
2024/01/27 06:54:29;;;;;;;;;;;;;;;11.15;46.24;102126.59;5008891;27;97899;-65
2024/01/27 06:56:55;;;;;;;;;;;;;;;11.13;46.34;102129.53;5000280;27;97878;-66
2024/01/27 06:59:21;;;;;;;;;;;;;;;11.13;46.17;102132.22;4975534;27;99522;-65
2024/01/27 07:01:51;;;;;;;;;;;;;;;11.15;46.27;102138.22;4990237;27;107073;-65
2024/01/27 07:04:17;;;;;;;;;;;;;;;11.16;46.17;102134.47;4965768;27;98160;-65
2024/01/27 07:06:44;;;;;;;;;;;;;;;11.16;46.39;102128.22;4980768;27;98192;-66
2024/01/27 07:09:10;;;;;;;;;;;;;;;11.17;46.13;102141.50;4966452;27;98300;-72
2024/01/27 07:11:37;;;;;;;;;;;;;;;11.18;46.02;102143.16;4975592;27;99302;-65
2024/01/27 07:14:04;;;;;;;;;;;;;;;11.18;45.94;102153.13;4990788;27;98126;-65
2024/01/27 07:16:30;;;;;;;;;;;;;;;11.17;45.86;102162.28;4981316;27;99133;-66
2024/01/27 07:18:56;;;;;;;;;;;;;;;11.19;46.35;102158.28;4965735;27;98127;-65
2024/01/27 07:21:22;;;;;;;;;;;;;;;11.20;46.27;102161.81;4996265;27;98526;-71
2024/01/27 07:23:48;;;;;;;;;;;;;;;11.19;46.01;102173.66;4997232;27;98158;-72
2024/01/27 07:26:15;;;;;;;;;;;;;;;11.20;46.12;102175.28;4976620;27;103181;-65
2024/01/27 07:28:41;;;;;;;;;;;;;;;11.21;46.14;102180.50;4980400;27;98346;-65
2024/01/27 07:31:07;;;;;;;;;;;;;;;11.22;46.23;102192.91;4971751;27;125214;-71
2024/01/27 07:33:33;;;;;;;;;;;;;;;11.23;46.04;102189.16;4962209;27;98226;-72
2024/01/27 07:36:00;;;;;;;;;;;;;;;11.23;45.99;102194.56;4964103;27;98805;-67
2024/01/27 07:38:27;;;;;;;;;;;;;;;11.25;45.98;102197.03;4960178;27;98342;-65
2024/01/27 07:40:54;;;;;;;;;;;;;;;11.26;45.88;102201.38;4962566;27;98412;-66
2024/01/27 07:43:20;;;;;;;;;;;;;;;11.27;46.10;102203.03;4968642;27;98095;-72
2024/01/27 07:45:46;;;;;;;;;;;;;;;11.27;46.06;102209.25;4963136;27;98484;-72
2024/01/27 07:48:12;;;;;;;;;;;;;;;11.29;46.13;102204.44;4981050;27;97883;-65
2024/01/27 07:50:38;;;;;;;;;;;;;;;11.31;46.11;102236.59;4992667;27;99174;-72
2024/01/27 07:53:05;;;;;;;;;;;;;;;11.31;46.00;102228.50;4961473;27;98325;-71
2024/01/27 07:55:31;;;;;;;;;;;;;;;11.33;45.82;102236.41;4964806;27;98255;-72
2024/01/27 07:57:58;;;;;;;;;;;;;;;11.34;45.97;102241.56;4964124;27;130322;-66
2024/01/27 08:00:24;;;;;;;;;;;;;;;11.34;46.07;102241.56;4963749;27;99212;-65
2024/01/27 08:02:50;;;;;;;;;;;;;;;11.36;46.01;102246.72;4986427;27;99116;-65
2024/01/27 08:05:16;;;;;;;;;;;;;;;11.37;46.05;102256.47;4961525;27;118337;-65
2024/01/27 08:07:42;;;;;;;;;;;;;;;11.37;46.16;102260.00;4978594;27;98350;-72
2024/01/27 08:10:10;;;;;;;;;;;;;;;11.38;45.94;102264.34;4978764;27;116723;-72
2024/01/27 08:12:37;;;;;;;;;;;;;;;11.39;46.02;102267.84;4984816;27;97999;-65
2024/01/27 08:15:03;;;;;;;;;;;;;;;11.39;46.21;102276.78;4967403;27;98290;-65
2024/01/27 08:17:29;;;;;;;;;;;;;;;11.42;46.04;102278.22;4959543;27;100333;-72
2024/01/27 08:19:55;;;;;;;;;;;;;;;11.42;46.04;102279.03;4963061;27;101166;-65
2024/01/27 08:22:21;;;;;;;;;;;;;;;11.43;46.07;102286.06;4974474;27;98217;-71
2024/01/27 08:24:47;;;;;;;;;;;;;;;11.43;45.86;102296.06;4967826;27;98488;-65
2024/01/27 08:27:13;;;;;;;;;;;;;;;11.45;45.98;102297.47;4989903;27;104170;-71
2024/01/27 08:29:39;;;;;;;;;;;;;;;11.46;46.07;102287.50;4981824;27;124969;-71
2024/01/27 08:32:05;;;;;;;;;;;;;;;11.48;46.20;102296.22;4968369;27;99781;-65
2024/01/27 08:34:31;;;;;;;;;;;;;;;11.52;45.81;102289.28;4981301;27;110185;-71
2024/01/27 08:37:02;;;;;;;;;;;;;;;11.55;45.92;102292.38;5000710;27;98087;-71
2024/01/27 08:39:28;;;;;;;;;;;;;;;11.60;45.83;102288.16;4962614;27;99248;-65
2024/01/27 08:41:54;;;;;;;;;;;;;;;11.61;45.95;102287.09;4996421;27;98444;-71
2024/01/27 08:44:20;;;;;;;;;;;;;;;11.63;45.87;102290.38;4968037;27;98647;-65
2024/01/27 08:46:46;;;;;;;;;;;;;;;11.66;46.01;102289.91;4970889;27;97966;-65
2024/01/27 08:49:12;;;;;;;;;;;;;;;11.69;45.89;102292.16;4984252;27;98796;-71
2024/01/27 08:51:38;;;;;;;;;;;;;;;11.72;45.97;102287.13;4965895;27;99323;-65
2024/01/27 08:54:04;;;;;;;;;;;;;;;11.76;45.83;102301.81;4970444;27;121324;-71
2024/01/27 08:56:30;;;;;;;;;;;;;;;11.77;45.44;102303.44;4968048;27;100853;-72
2024/01/27 08:58:57;;;;;;;;;;;;;;;11.80;45.67;102300.28;4971123;27;98681;-65
2024/01/27 09:01:23;;;;;;;;;;;;;;;11.83;45.79;102307.16;5000256;27;99537;-66
2024/01/27 09:03:49;;;;;;;;;;;;;;;11.84;45.91;102314.19;4963239;27;98529;-65
2024/01/27 09:06:16;;;;;;;;;;;;;;;11.85;45.86;102323.94;4996012;27;98499;-66
2024/01/27 09:08:42;;;;;;;;;;;;;;;11.88;45.92;102323.50;4984696;27;98678;-70
2024/01/27 09:11:09;;;;;;;;;;;;;;;11.88;45.86;102319.97;4977173;27;98346;-71
2024/01/27 09:13:35;;;;;;;;;;;;;;;11.90;45.97;102326.78;4964423;27;98511;-71
2024/01/27 09:16:01;;;;;;;;;;;;;;;11.93;45.95;102322.78;4963382;27;110651;-66
2024/01/27 09:18:27;;;;;;;;;;;;;;;11.94;45.86;102327.13;4983755;27;98140;-72
2024/01/27 09:20:53;;;;;;;;;;;;;;;11.95;45.78;102318.81;4972112;27;98377;-72
2024/01/27 09:23:20;;;;;;;;;;;;;;;11.96;45.77;102333.16;4973024;27;97957;-72
2024/01/27 09:25:45;;;;;;;;;;;;;;;11.96;45.95;102331.28;4988270;27;99488;-72
2024/01/27 09:28:12;;;;;;;;;;;;;;;12.00;45.89;102334.34;4995192;27;105980;-65
2024/01/27 09:30:38;;;;;;;;;;;;;;;12.03;45.68;102323.88;4965217;27;98948;-71
2024/01/27 09:33:04;;;;;;;;;;;;;;;12.07;45.49;102321.53;4968234;27;99655;-71
2024/01/27 09:35:30;;;;;;;;;;;;;;;12.13;45.79;102326.00;4981679;27;98470;-66
2024/01/27 09:37:56;;;;;;;;;;;;;;;12.18;45.71;102331.56;4978287;27;99455;-72
2024/01/27 09:40:22;;;;;;;;;;;;;;;12.21;45.61;102330.25;4981052;27;98118;-65
2024/01/27 09:42:53;;;;;;;;;;;;;;;12.27;45.64;102332.03;4987666;27;98290;-65
2024/01/27 09:45:22;;;;;;;;;;;;;;;12.29;45.40;102343.41;4982776;27;98328;-71
2024/01/27 09:47:48;;;;;;;;;;;;;;;12.29;45.56;102341.53;4978198;27;98236;-65
2024/01/27 09:50:15;;;;;;;;;;;;;;;12.33;45.62;102338.38;4968995;27;98625;-71
2024/01/27 09:52:41;;;;;;;;;;;;;;;12.37;45.54;102342.25;4963288;27;98540;-71
2024/01/27 09:55:07;;;;;;;;;;;;;;;12.39;45.81;102346.38;4963409;27;98113;-65
2024/01/27 09:57:34;;;;;;;;;;;;;;;12.39;45.63;102348.28;4984283;27;98770;-65
2024/01/27 10:00:00;;;;;;;;;;;;;;;12.41;45.81;102352.38;4961495;27;98144;-65
2024/01/27 10:02:26;;;;;;;;;;;;;;;12.46;45.75;102346.28;4995490;27;101778;-71
2024/01/27 10:04:54;;;;;;;;;;;;;;;12.49;45.55;102352.00;4990478;27;98325;-65
2024/01/27 10:07:20;;;;;;;;;;;;;;;12.54;45.71;102351.34;4968279;27;97801;-71
2024/01/27 10:09:49;;;;;;;;;;;;;;;12.58;45.90;102339.00;4960764;27;100079;-72
2024/01/27 10:12:16;;;;;;;;;;;;;;;12.63;45.48;102339.09;4985399;27;98279;-65
2024/01/27 10:14:42;;;;;;;;;;;;;;;12.71;45.58;102333.31;4981903;27;98200;-72
2024/01/27 10:17:11;;;;;;;;;;;;;;;12.77;45.71;102342.38;4984610;27;98387;-71
2024/01/27 10:19:38;;;;;;;;;;;;;;;12.78;45.50;102339.44;4983039;27;99738;-65
2024/01/27 10:22:04;;;;;;;;;;;;;;;12.82;45.58;102347.91;4970768;27;99839;-72
2024/01/27 10:24:33;;;;;;;;;;;;;;;12.85;45.50;102346.59;4980158;27;98460;-71
2024/01/27 10:27:03;;;;;;;;;;;;;;;12.91;45.83;102342.97;4983705;27;99384;-66
2024/01/27 10:29:30;;;;;;;;;;;;;;;12.96;45.73;102338.47;4972060;27;98211;-72
2024/01/27 10:32:06;;;;;;;;;;;;;;;13.02;45.67;102334.81;4976484;27;98616;-66
2024/01/27 10:34:32;;;;;;;;;;;;;;;13.17;45.20;102328.91;4981726;27;99630;-74
2024/01/27 10:36:58;;;;;;;;;;;;;;;13.24;45.21;102332.34;4981942;27;114707;-71
2024/01/27 10:39:24;;;;;;;;;;;;;;;13.31;44.99;102331.34;4992215;27;112229;-76
2024/01/27 10:41:51;;;;;;;;;;;;;;;13.47;45.03;102338.72;4965010;27;99761;-79
2024/01/27 10:44:18;;;;;;;;;;;;;;;13.50;45.03;102338.22;4966500;27;99368;-76
2024/01/27 10:46:48;;;;;;;;;;;;;;;13.60;45.16;102330.31;4969832;27;100013;-75
2024/01/27 10:49:17;;;;;;;;;;;;;;;13.62;45.25;102333.59;4966578;27;98314;-73
2024/01/27 10:51:54;;;;;;;;;;;;;;;13.59;45.10;102342.19;4961500;27;104549;-67
2024/01/27 10:54:28;;;;;;;;;;;;;;;13.58;45.11;102337.84;4980879;27;98157;-73
2024/01/27 10:56:58;;;;;;;;;;;;;;;13.73;45.04;102346.25;4969897;27;98459;-74
2024/01/27 10:59:25;;;;;;;;;;;;;;;13.80;44.98;102345.31;4987166;27;98290;-67
2024/01/27 11:01:53;;;;;;;;;;;;;;;13.80;45.41;102343.41;4962852;27;98383;-73
2024/01/27 11:04:19;;;;;;;;;;;;;;;13.86;45.09;102337.00;5009137;27;98391;-73
2024/01/27 11:06:46;;;;;;;;;;;;;;;13.80;45.37;102342.59;4966860;27;100794;-74
2024/01/27 11:09:12;;;;;;;;;;;;;;;13.73;45.25;102345.44;4966583;27;97965;-67
2024/01/27 11:11:39;;;;;;;;;;;;;;;13.75;45.46;102335.16;4975793;27;130378;-68
2024/01/27 11:14:05;;;;;;;;;;;;;;;13.80;45.35;102335.28;4966491;27;97978;-68
2024/01/27 11:16:31;;;;;;;;;;;;;;;13.80;45.65;102335.28;4988885;27;114131;-75
2024/01/27 11:18:57;;;;;;;;;;;;;;;13.94;45.36;102335.78;4982814;27;98190;-68
2024/01/27 11:21:23;;;;;;;;;;;;;;;14.16;45.46;102333.19;4960220;27;100129;-68
2024/01/27 11:23:49;;;;;;;;;;;;;;;14.13;45.28;102339.91;4965070;27;99636;-68
2024/01/27 11:26:22;;;;;;;;;;;;;;;14.13;45.41;102336.38;4962799;27;98348;-75
2024/01/27 11:28:51;;;;;;;;;;;;;;;14.30;45.50;102342.59;4984211;27;98181;-74
2024/01/27 11:31:20;;;;;;;;;;;;;;;14.34;45.36;102349.19;4999206;27;98255;-67
2024/01/27 11:33:51;;;;;;;;;;;;;;;14.31;45.32;102344.28;4975026;27;98594;-74
2024/01/27 11:36:24;;;;;;;;;;;;;;;14.34;45.57;102345.66;4992111;27;98476;-74
2024/01/27 11:38:51;;;;;;;;;;;;;;;14.41;45.32;102341.72;4972566;27;98350;-67
2024/01/27 11:41:26;;;;;;;;;;;;;;;14.56;45.36;102346.56;4992663;27;98164;-68
2024/01/27 11:44:02;;;;;;;;;;;;;;;14.46;45.56;102347.22;4980397;27;98313;-74
2024/01/27 11:46:28;;;;;;;;;;;;;;;14.53;45.61;102349.78;4972142;27;99680;-74
2024/01/27 11:48:54;;;;;;;;;;;;;;;14.56;45.51;102353.91;4967193;27;98250;-73
2024/01/27 11:51:20;;;;;;;;;;;;;;;14.56;45.28;102352.00;4978427;27;98438;-74
2024/01/27 11:53:46;;;;;;;;;;;;;;;14.55;45.43;102352.28;4969981;27;98414;-74
2024/01/27 11:56:13;;;;;;;;;;;;;;;14.64;45.26;102353.47;4982948;27;98397;-74
2024/01/27 11:58:47;;;;;;;;;;;;;;;14.65;45.41;102358.66;4978109;27;97896;-74
2024/01/27 12:01:14;;;;;;;;;;;;;;;14.68;45.54;102365.47;4961598;27;98879;-67
2024/01/27 12:03:40;;;;;;;;;;;;;;;14.63;45.79;102358.09;4999334;27;108417;-74
2024/01/27 12:06:07;;;;;;;;;;;;;;;14.58;45.53;102368.03;4966350;27;98264;-74
2024/01/27 12:08:35;;;;;;;;;;;;;;;14.62;45.47;102371.88;4983641;27;99799;-68
2024/01/27 12:11:02;;;;;;;;;;;;;;;14.66;45.68;102371.16;4966238;27;99867;-74
2024/01/27 12:13:29;;;;;;;;;;;;;;;14.53;45.63;102378.81;4983848;27;102512;-68
2024/01/27 12:15:55;;;;;;;;;;;;;;;14.46;45.75;102374.38;4979001;27;98290;-74
2024/01/27 12:18:21;;;;;;;;;;;;;;;14.45;45.90;102385.44;4979923;27;98525;-74
2024/01/27 12:20:48;;;;;;;;;;;;;;;14.39;45.93;102392.69;4996151;27;101420;-68
2024/01/27 12:23:14;;;;;;;;;;;;;;;14.36;45.73;102378.78;4993982;27;98516;-74
2024/01/27 12:25:42;;;;;;;;;;;;;;;14.39;45.89;102389.16;4962862;27;98430;-68
2024/01/27 12:28:08;;;;;;;;;;;;;;;14.49;45.60;102386.63;4976761;27;98445;-68
2024/01/27 12:30:34;;;;;;;;;;;;;;;14.60;45.79;102371.34;4963910;27;98088;-67
2024/01/27 12:33:01;;;;;;;;;;;;;;;14.59;45.59;102373.22;4964126;27;98138;-68